Time;durP1;ratioP1;P1;durP2;ratioP2;P2;SDS_P1;SDS_P2;PMS_P1;PMS_P2;Temp;Humidity;BMP_temperature;BMP_pressure;BME280_temperature;BME280_humidity;BME280_pressure;Samples;Min_cycle;Max_cycle;Signal;HPM_P1;HPM_P2
2023/06/17 00:00:22;;;;;;;1999.90;999.90;;;17.30;99.90;;;;;;5054913;28;20040;-73
2023/06/17 00:02:49;;;;;;;1999.90;999.90;;;17.30;99.90;;;;;;5054246;28;20103;-74
2023/06/17 00:05:14;;;;;;;1999.90;999.90;;;17.30;99.90;;;;;;5055515;28;20045;-74
2023/06/17 00:07:41;;;;;;;1999.90;999.90;;;17.30;99.90;;;;;;5021428;28;20500;-73
2023/06/17 00:10:07;;;;;;;1999.90;999.90;;;17.30;99.90;;;;;;5054420;28;20481;-74
2023/06/17 00:12:33;;;;;;;1999.90;999.90;;;17.20;99.90;;;;;;5055924;28;20041;-74
2023/06/17 00:15:04;;;;;;;1999.90;999.90;;;17.20;99.90;;;;;;5054241;28;20048;-74
2023/06/17 00:17:30;;;;;;;1999.90;999.90;;;17.20;99.90;;;;;;5055593;28;20095;-74
2023/06/17 00:19:58;;;;;;;1999.90;999.90;;;17.20;99.90;;;;;;5055216;28;20115;-73
2023/06/17 00:22:25;;;;;;;1999.90;999.90;;;17.20;99.90;;;;;;5055599;28;20056;-73
2023/06/17 00:24:51;;;;;;;1999.90;999.90;;;17.20;99.90;;;;;;5055243;28;20052;-73
2023/06/17 00:27:20;;;;;;;1999.90;999.90;;;17.20;99.90;;;;;;5053885;28;20130;-74
2023/06/17 00:29:45;;;;;;;1999.90;999.90;;;17.20;99.90;;;;;;5053805;28;20087;-73
2023/06/17 00:32:11;;;;;;;1999.90;999.90;;;17.20;99.90;;;;;;5053805;28;20048;-73
2023/06/17 00:34:37;;;;;;;1999.90;999.90;;;17.20;99.90;;;;;;5053710;28;20497;-73
2023/06/17 00:37:03;;;;;;;1999.90;999.90;;;17.20;99.90;;;;;;5053694;28;20132;-73
2023/06/17 00:39:28;;;;;;;1999.90;999.90;;;17.20;99.90;;;;;;5053818;28;20053;-72
2023/06/17 00:41:56;;;;;;;1999.90;999.90;;;17.10;99.90;;;;;;5054769;28;20044;-75
2023/06/17 00:44:22;;;;;;;1999.90;999.90;;;17.10;99.90;;;;;;5054773;28;20057;-73
2023/06/17 00:46:50;;;;;;;1999.90;999.90;;;17.10;99.90;;;;;;5054566;28;20067;-73
2023/06/17 00:49:17;;;;;;;1999.90;999.90;;;17.10;99.90;;;;;;5053138;28;20053;-74
2023/06/17 00:51:44;;;;;;;1999.90;999.90;;;17.10;99.90;;;;;;5054599;28;20048;-73
2023/06/17 00:54:12;;;;;;;1999.90;999.90;;;17.10;99.90;;;;;;5053359;28;20550;-73
2023/06/17 00:56:40;;;;;;;1999.90;999.90;;;17.10;99.90;;;;;;5054478;28;20053;-73
2023/06/17 00:59:07;;;;;;;1999.90;999.90;;;17.10;99.90;;;;;;5053235;28;20075;-73
2023/06/17 01:01:35;;;;;;;1999.90;999.90;;;17.00;99.90;;;;;;5036473;28;20063;-72
2023/06/17 01:04:02;;;;;;;1999.90;999.90;;;17.00;99.90;;;;;;5020744;28;20132;-73
2023/06/17 01:06:52;;;;;;;1999.90;999.90;;;17.00;99.90;;;;;;5054403;28;20045;-73
2023/06/17 01:09:27;;;;;;;1999.90;999.90;;;16.90;99.90;;;;;;5052732;28;20144;-73
2023/06/17 01:11:56;;;;;;;1999.90;999.90;;;17.00;99.90;;;;;;5036920;28;20456;-73
2023/06/17 01:14:24;;;;;;;1999.90;999.90;;;17.00;99.90;;;;;;5036610;28;20057;-74
2023/06/17 01:16:53;;;;;;;1999.90;999.90;;;16.90;99.90;;;;;;5052984;28;20041;-72
2023/06/17 01:19:21;;;;;;;1999.90;999.90;;;17.00;99.90;;;;;;5053422;28;20180;-74
2023/06/17 01:21:53;;;;;;;1999.90;999.90;;;16.90;99.90;;;;;;5037080;28;20048;-73
2023/06/17 01:24:27;;;;;;;1999.90;999.90;;;16.90;99.90;;;;;;5052901;28;20123;-74
2023/06/17 01:27:02;;;;;;;1999.90;999.90;;;16.90;99.90;;;;;;5052315;28;20379;-73
2023/06/17 01:29:37;;;;;;;1999.90;999.90;;;16.90;99.90;;;;;;5036752;28;20045;-73
2023/06/17 01:32:17;;;;;;;1999.90;999.90;;;16.80;99.90;;;;;;5054022;28;20128;-74
2023/06/17 01:34:56;;;;;;;1999.90;999.90;;;16.90;99.90;;;;;;5053896;28;20085;-73
2023/06/17 01:37:40;;;;;;;1999.90;999.90;;;17.80;99.90;;;;;;5054721;28;20129;-72
2023/06/17 01:40:10;;;;;;;1999.90;999.90;;;16.80;99.90;;;;;;5054111;28;20045;-73
2023/06/17 01:42:41;;;;;;;1999.90;999.90;;;16.80;99.90;;;;;;5052268;28;20074;-73
2023/06/17 01:45:08;;;;;;;1999.90;999.90;;;16.80;99.90;;;;;;5035893;28;20131;-73
2023/06/17 01:47:34;;;;;;;1999.90;999.90;;;16.80;99.90;;;;;;5019817;28;20067;-73
2023/06/17 01:50:02;;;;;;;1999.90;999.90;;;16.80;99.90;;;;;;5053172;28;20057;-73
2023/06/17 01:52:28;;;;;;;1999.90;999.90;;;16.80;99.90;;;;;;5053525;28;20060;-72
2023/06/17 01:54:54;;;;;;;1999.90;999.90;;;16.80;99.90;;;;;;5053344;28;20052;-74
2023/06/17 01:57:20;;;;;;;1999.90;999.90;;;16.80;99.90;;;;;;5035767;28;20045;-74
2023/06/17 01:59:45;;;;;;;1999.90;999.90;;;16.80;99.90;;;;;;5019779;28;20049;-73
2023/06/17 02:02:17;;;;;;;1999.90;999.90;;;16.80;99.90;;;;;;5036806;28;20091;-73
2023/06/17 02:04:43;;;;;;;1999.90;999.90;;;16.80;99.90;;;;;;5052236;28;20497;-73
2023/06/17 02:07:10;;;;;;;1999.90;999.90;;;16.80;99.90;;;;;;5035897;28;20110;-74
2023/06/17 02:09:38;;;;;;;1999.90;999.90;;;16.80;99.90;;;;;;5036120;28;20040;-72
2023/06/17 02:12:05;;;;;;;1999.90;999.90;;;16.80;99.90;;;;;;5053126;28;20056;-72
2023/06/17 02:14:33;;;;;;;1999.90;999.90;;;16.80;99.90;;;;;;5035736;28;20492;-73
2023/06/17 02:16:58;;;;;;;1999.90;999.90;;;16.80;99.90;;;;;;5052396;28;20164;-73
2023/06/17 02:19:28;;;;;;;1999.90;999.90;;;16.80;99.90;;;;;;5051756;28;20057;-72
2023/06/17 02:21:55;;;;;;;1999.90;999.90;;;16.80;99.90;;;;;;5053319;28;20135;-73
2023/06/17 02:24:21;;;;;;;1999.90;999.90;;;16.80;99.90;;;;;;5053312;28;20106;-73
2023/06/17 02:26:49;;;;;;;1999.90;999.90;;;16.80;99.90;;;;;;5053057;28;20469;-74
2023/06/17 02:29:15;;;;;;;1999.90;999.90;;;16.80;99.90;;;;;;5036514;28;20080;-73
2023/06/17 02:31:41;;;;;;;1999.90;999.90;;;16.80;99.90;;;;;;5053148;28;20048;-73
2023/06/17 02:34:07;;;;;;;1999.90;999.90;;;16.80;99.90;;;;;;5052154;28;20040;-72
2023/06/17 02:36:33;;;;;;;1999.90;999.90;;;16.80;99.90;;;;;;5036547;28;20098;-73
2023/06/17 02:38:59;;;;;;;1999.90;999.90;;;16.80;99.90;;;;;;5037706;28;20131;-73
2023/06/17 02:41:25;;;;;;;1999.90;999.90;;;16.80;99.90;;;;;;5057557;28;20049;-73
2023/06/17 02:43:51;;;;;;;1999.90;999.90;;;16.70;99.90;;;;;;5056045;28;20051;-73
2023/06/17 02:46:17;;;;;;;1999.90;999.90;;;16.70;99.90;;;;;;5022905;28;20044;-74
2023/06/17 02:48:42;;;;;;;1999.90;999.90;;;16.70;99.90;;;;;;5056305;28;20076;-73
2023/06/17 02:51:09;;;;;;;1999.90;999.90;;;16.70;99.90;;;;;;5023115;28;20125;-74
2023/06/17 02:53:35;;;;;;;1999.90;999.90;;;16.70;99.90;;;;;;5038948;28;20489;-74
2023/06/17 02:56:00;;;;;;;1999.90;999.90;;;16.70;99.90;;;;;;5056788;28;20162;-73
2023/06/17 02:58:26;;;;;;;1999.90;999.90;;;16.70;99.90;;;;;;5039150;28;20081;-73
2023/06/17 03:00:55;;;;;;;1999.90;999.90;;;16.70;99.90;;;;;;5055769;28;20048;-74
2023/06/17 03:03:33;;;;;;;1999.90;999.90;;;16.70;99.90;;;;;;5039878;28;20141;-74
2023/06/17 03:06:04;;;;;;;1999.90;999.90;;;16.70;99.90;;;;;;5039074;28;20059;-74
2023/06/17 03:08:32;;;;;;;1999.90;999.90;;;16.70;99.90;;;;;;5056030;28;20045;-73
2023/06/17 03:11:01;;;;;;;1999.90;999.90;;;16.70;99.90;;;;;;5056509;28;20107;-73
2023/06/17 03:13:28;;;;;;;1999.90;999.90;;;16.70;99.90;;;;;;5038484;28;20048;-73
2023/06/17 03:15:55;;;;;;;1999.90;999.90;;;16.70;99.90;;;;;;5038711;28;20056;-73
2023/06/17 03:18:21;;;;;;;1999.90;999.90;;;16.70;99.90;;;;;;5056476;28;20490;-73
2023/06/17 03:20:49;;;;;;;1999.90;999.90;;;16.70;99.90;;;;;;5056488;28;20044;-74
2023/06/17 03:23:20;;;;;;;1999.90;999.90;;;16.70;99.90;;;;;;5038437;28;20103;-73
2023/06/17 03:25:48;;;;;;;1999.90;999.90;;;16.60;99.90;;;;;;5055705;28;20437;-74
2023/06/17 03:28:15;;;;;;;1999.90;999.90;;;16.60;99.90;;;;;;5056252;28;20148;-73
2023/06/17 03:30:41;;;;;;;1999.90;999.90;;;16.60;99.90;;;;;;5038148;28;20114;-74
2023/06/17 03:33:08;;;;;;;1999.90;999.90;;;16.60;99.90;;;;;;5054788;28;20045;-74
2023/06/17 03:35:34;;;;;;;1999.90;999.90;;;16.60;99.90;;;;;;5022301;28;20056;-73
2023/06/17 03:38:02;;;;;;;1999.90;999.90;;;16.70;99.90;;;;;;5038360;28;20041;-73
2023/06/17 03:40:28;;;;;;;1999.90;999.90;;;16.60;99.90;;;;;;5055661;28;20052;-73
2023/06/17 03:42:54;;;;;;;1999.90;999.90;;;16.60;99.90;;;;;;5038152;28;20044;-73
2023/06/17 03:45:20;;;;;;;1999.90;999.90;;;16.60;99.90;;;;;;5038105;28;20500;-74
2023/06/17 03:47:46;;;;;;;1999.90;999.90;;;16.60;99.90;;;;;;5054475;28;20128;-73
2023/06/17 03:50:13;;;;;;;1999.90;999.90;;;16.60;99.90;;;;;;5053872;28;20131;-73
2023/06/17 03:52:39;;;;;;;1999.90;999.90;;;16.50;99.90;;;;;;5055305;28;20057;-73
2023/06/17 03:55:05;;;;;;;1999.90;999.90;;;16.60;99.90;;;;;;5054682;28;20469;-73
2023/06/17 03:57:31;;;;;;;1999.90;999.90;;;16.60;99.90;;;;;;5054551;28;20122;-73
2023/06/17 03:59:57;;;;;;;1999.90;999.90;;;16.60;99.90;;;;;;5054908;28;20469;-74
2023/06/17 04:02:23;;;;;;;1999.90;999.90;;;16.60;99.90;;;;;;5055632;28;20462;-74
2023/06/17 04:04:52;;;;;;;1999.90;999.90;;;16.50;99.90;;;;;;5055061;28;20044;-73
2023/06/17 04:07:22;;;;;;;1999.90;999.90;;;16.50;99.90;;;;;;5055380;28;20053;-74
2023/06/17 04:09:48;;;;;;;1999.90;999.90;;;16.50;99.90;;;;;;5054528;28;20053;-73
2023/06/17 04:12:15;;;;;;;1999.90;999.90;;;16.50;99.90;;;;;;5021424;28;20041;-73
2023/06/17 04:14:41;;;;;;;1999.90;999.90;;;16.50;99.90;;;;;;5055490;28;20135;-73
2023/06/17 04:17:07;;;;;;;1999.90;999.90;;;16.50;99.90;;;;;;5038095;28;20124;-73
2023/06/17 04:19:37;;;;;;;1999.90;999.90;;;16.50;99.90;;;;;;5054710;28;20053;-73
2023/06/17 04:22:04;;;;;;;1999.90;999.90;;;16.40;99.90;;;;;;5037581;28;20044;-73
2023/06/17 04:24:30;;;;;;;1999.90;999.90;;;16.40;99.90;;;;;;5055172;28;20045;-73
2023/06/17 04:26:55;;;;;;;1999.90;999.90;;;16.40;99.90;;;;;;5020883;28;20374;-74
2023/06/17 04:29:21;;;;;;;1999.90;999.90;;;16.40;99.90;;;;;;5038348;28;20049;-73
2023/06/17 04:31:50;;;;;;;1999.90;999.90;;;16.40;99.90;;;;;;5054069;28;20045;-74
2023/06/17 04:34:21;;;;;;;1999.90;999.90;;;16.40;99.90;;;;;;5054004;28;20052;-73
2023/06/17 04:36:49;;;;;;;1999.90;999.90;;;16.40;99.90;;;;;;5054664;28;20053;-73
2023/06/17 04:39:18;;;;;;;1999.90;999.90;;;16.40;99.90;;;;;;5037579;28;20053;-74
2023/06/17 04:41:45;;;;;;;1999.90;999.90;;;16.40;99.90;;;;;;5053864;28;20059;-74
2023/06/17 04:44:12;;;;;;;1999.90;999.90;;;16.40;99.90;;;;;;5054691;28;20048;-74
2023/06/17 04:46:38;;;;;;;1999.90;999.90;;;16.40;99.90;;;;;;5037251;28;20057;-73
2023/06/17 04:49:04;;;;;;;1999.90;999.90;;;16.40;99.90;;;;;;5054386;28;20358;-72
2023/06/17 04:51:30;;;;;;;1999.90;999.90;;;15.10;99.90;;;;;;5036521;28;20061;-74
2023/06/17 04:53:56;;;;;;;1999.90;999.90;;;16.30;99.90;;;;;;5053242;28;20132;-72
2023/06/17 04:56:26;;;;;;;1999.90;999.90;;;16.40;99.90;;;;;;5037183;28;20048;-74
2023/06/17 04:58:52;;;;;;;1999.90;999.90;;;16.30;99.90;;;;;;5054191;28;20063;-72
2023/06/17 05:01:18;;;;;;;1999.90;999.90;;;16.30;99.90;;;;;;5052568;28;20124;-74
2023/06/17 05:03:44;;;;;;;1999.90;999.90;;;16.30;99.90;;;;;;5053936;28;20135;-74
2023/06/17 05:06:10;;;;;;;1999.90;999.90;;;16.30;99.90;;;;;;5053158;28;20049;-75
2023/06/17 05:08:36;;;;;;;1999.90;999.90;;;16.30;99.90;;;;;;5054122;28;20053;-74
2023/06/17 05:11:02;;;;;;;1999.90;999.90;;;16.40;99.90;;;;;;5054278;28;20140;-74
2023/06/17 05:13:28;;;;;;;1999.90;999.90;;;16.40;99.90;;;;;;5053873;28;20085;-74
2023/06/17 05:15:53;;;;;;;1999.90;999.90;;;16.40;99.90;;;;;;5036648;28;20057;-73
2023/06/17 05:18:19;;;;;;;1999.90;999.90;;;16.40;99.90;;;;;;5054944;28;20052;-74
2023/06/17 05:20:45;;;;;;;1999.90;999.90;;;16.40;99.90;;;;;;5036337;28;20422;-74
2023/06/17 05:23:10;;;;;;;1999.90;999.90;;;16.40;99.90;;;;;;5053069;28;20059;-74
2023/06/17 05:25:36;;;;;;;1999.90;999.90;;;16.40;99.90;;;;;;5036681;28;20045;-74
2023/06/17 05:28:05;;;;;;;1999.90;999.90;;;16.50;99.90;;;;;;5036510;28;20124;-74
2023/06/17 05:30:30;;;;;;;1999.90;999.90;;;16.50;99.90;;;;;;5053092;28;20480;-74
2023/06/17 05:32:56;;;;;;;1999.90;999.90;;;16.50;99.90;;;;;;5053971;28;20124;-73
2023/06/17 05:35:22;;;;;;;1999.90;999.90;;;16.50;99.90;;;;;;5053478;28;20063;-74
2023/06/17 05:37:48;;;;;;;1999.90;999.90;;;16.50;99.90;;;;;;5051880;28;20119;-74
2023/06/17 05:40:14;;;;;;;1999.90;999.90;;;16.50;99.90;;;;;;5036212;28;20037;-74
2023/06/17 05:42:40;;;;;;;1999.90;999.90;;;16.50;99.90;;;;;;5052480;28;20088;-74
2023/06/17 05:45:07;;;;;;;1999.90;999.90;;;16.60;99.90;;;;;;5036493;28;20080;-73
2023/06/17 05:47:35;;;;;;;1999.90;999.90;;;16.50;99.90;;;;;;5019710;28;20049;-72
2023/06/17 05:50:00;;;;;;;1999.90;999.90;;;16.50;99.90;;;;;;5019230;28;20114;-73
2023/06/17 05:52:27;;;;;;;1999.90;999.90;;;16.50;99.90;;;;;;5035899;28;20057;-73
2023/06/17 05:54:55;;;;;;;1999.90;999.90;;;16.50;99.90;;;;;;5036146;28;20052;-73
2023/06/17 05:57:22;;;;;;;1999.90;999.90;;;16.50;99.90;;;;;;5052835;28;20115;-73
2023/06/17 05:59:48;;;;;;;1999.90;999.90;;;16.50;99.90;;;;;;5052374;28;20048;-73
2023/06/17 06:02:15;;;;;;;1999.90;999.90;;;16.50;99.90;;;;;;5035786;28;20037;-73
2023/06/17 06:04:40;;;;;;;1999.90;999.90;;;16.50;99.90;;;;;;5051495;28;20489;-73
2023/06/17 06:07:09;;;;;;;1999.90;999.90;;;16.50;99.90;;;;;;5052312;28;20056;-73
2023/06/17 06:09:40;;;;;;;1999.90;999.90;;;16.60;99.90;;;;;;5035957;28;20045;-74
2023/06/17 06:12:10;;;;;;;1999.90;999.90;;;16.60;99.90;;;;;;5052662;28;20044;-73
2023/06/17 06:14:35;;;;;;;1999.90;999.90;;;16.60;99.90;;;;;;5036368;28;20052;-74
2023/06/17 06:17:01;;;;;;;1999.90;999.90;;;16.70;99.90;;;;;;5052496;28;20049;-74
2023/06/17 06:19:27;;;;;;;1999.90;999.90;;;16.70;99.90;;;;;;5053005;28;20045;-73
2023/06/17 06:21:55;;;;;;;1999.90;999.90;;;16.70;99.90;;;;;;5036223;28;20500;-73
2023/06/17 06:24:21;;;;;;;1999.90;999.90;;;16.80;99.90;;;;;;5035749;28;20057;-74
2023/06/17 06:26:47;;;;;;;1999.90;999.90;;;16.80;99.90;;;;;;5052036;28;20041;-74
2023/06/17 06:29:15;;;;;;;1999.90;999.90;;;16.80;99.90;;;;;;5052895;28;20055;-74
2023/06/17 06:31:44;;;;;;;1999.90;999.90;;;16.80;99.90;;;;;;5052631;28;20045;-74
2023/06/17 06:34:09;;;;;;;1999.90;999.90;;;16.90;99.90;;;;;;5036665;28;20077;-73
2023/06/17 06:36:35;;;;;;;1999.90;999.90;;;16.90;99.90;;;;;;5054463;28;20080;-74
2023/06/17 06:39:02;;;;;;;1999.90;999.90;;;16.90;99.90;;;;;;5038193;28;20124;-74
2023/06/17 06:41:29;;;;;;;1999.90;999.90;;;16.90;99.90;;;;;;5019319;28;20088;-74
2023/06/17 06:43:54;;;;;;;1999.90;999.90;;;16.90;99.90;;;;;;5050913;28;20063;-72
2023/06/17 06:46:21;;;;;;;1999.90;999.90;;;16.90;99.90;;;;;;5053317;28;20124;-74
2023/06/17 06:48:50;;;;;;;1999.90;999.90;;;17.00;99.90;;;;;;5036228;28;20059;-74
2023/06/17 06:51:15;;;;;;;1999.90;999.90;;;17.00;99.90;;;;;;5052142;28;20057;-74
2023/06/17 06:53:41;;;;;;;1999.90;999.90;;;17.00;99.90;;;;;;5052115;28;20393;-72
2023/06/17 06:56:07;;;;;;;1999.90;999.90;;;17.00;99.90;;;;;;5019193;28;20048;-73
2023/06/17 06:58:33;;;;;;;1999.90;999.90;;;17.00;99.90;;;;;;5036379;28;20136;-73
2023/06/17 07:01:00;;;;;;;1999.90;999.90;;;17.00;99.90;;;;;;5019196;28;20111;-73
2023/06/17 07:03:26;;;;;;;1999.90;999.90;;;17.10;99.90;;;;;;5053618;28;20078;-74
2023/06/17 07:05:56;;;;;;;1999.90;999.90;;;17.10;99.90;;;;;;5053191;28;20122;-74
2023/06/17 07:08:21;;;;;;;1999.90;999.90;;;17.20;99.90;;;;;;5051680;28;20108;-72
2023/06/17 07:10:47;;;;;;;1999.90;999.90;;;17.20;99.90;;;;;;5020508;28;20155;-72
2023/06/17 07:13:13;;;;;;;1999.90;999.90;;;17.30;99.90;;;;;;5054376;28;20080;-74
2023/06/17 07:15:39;;;;;;;1999.90;999.90;;;17.30;99.90;;;;;;5037258;28;20135;-72
2023/06/17 07:18:13;;;;;;;1999.90;999.90;;;17.40;99.90;;;;;;5038914;28;20048;-72
2023/06/17 07:20:39;;;;;;;1999.90;999.90;;;17.40;99.90;;;;;;5054865;28;20439;-72
2023/06/17 07:23:09;;;;;;;1999.90;999.90;;;17.50;99.90;;;;;;5052751;28;20079;-73
2023/06/17 07:25:36;;;;;;;1999.90;999.90;;;17.50;99.90;;;;;;5055204;28;20132;-73
2023/06/17 07:28:03;;;;;;;1999.90;999.90;;;17.60;99.90;;;;;;5039451;28;20057;-72
2023/06/17 07:30:33;;;;;;;1999.90;999.90;;;17.60;99.90;;;;;;5039077;28;20051;-73
2023/06/17 07:33:01;;;;;;;1999.90;999.90;;;17.70;99.90;;;;;;5054242;28;20068;-73
2023/06/17 07:35:28;;;;;;;1999.90;999.90;;;17.70;99.90;;;;;;5038220;28;20064;-73
2023/06/17 07:37:54;;;;;;;1999.90;999.90;;;17.70;99.90;;;;;;5055263;28;20131;-73
2023/06/17 07:40:31;;;;;;;1999.90;999.90;;;17.80;99.90;;;;;;5038592;28;20073;-73
2023/06/17 07:42:56;;;;;;;1999.90;999.90;;;17.80;99.90;;;;;;5055906;28;20049;-71
2023/06/17 07:45:22;;;;;;;1999.90;999.90;;;17.90;99.90;;;;;;5042755;28;20106;-73
2023/06/17 07:47:48;;;;;;;1999.90;999.90;;;17.90;99.90;;;;;;5038440;28;20473;-71
2023/06/17 07:50:14;;;;;;;1999.90;999.90;;;18.00;99.90;;;;;;5037962;28;20049;-72
2023/06/17 07:52:40;;;;;;;1999.90;999.90;;;18.00;99.90;;;;;;5038402;28;20057;-74
2023/06/17 07:55:16;;;;;;;1999.90;999.90;;;18.00;99.90;;;;;;5056362;28;20084;-73
2023/06/17 07:57:43;;;;;;;1999.90;999.90;;;18.10;99.90;;;;;;5055797;28;20052;-74
2023/06/17 08:00:13;;;;;;;1999.90;999.90;;;18.00;99.90;;;;;;5038735;28;20061;-72
2023/06/17 08:02:41;;;;;;;1999.90;999.90;;;18.10;99.90;;;;;;5054710;28;20083;-73
2023/06/17 08:05:09;;;;;;;1999.90;999.90;;;18.10;99.90;;;;;;5038289;28;20053;-74
2023/06/17 08:07:36;;;;;;;1999.90;999.90;;;18.10;99.90;;;;;;5005772;28;20053;-72
2023/06/17 08:10:04;;;;;;;1999.90;999.90;;;18.10;99.90;;;;;;5037779;28;20052;-73
2023/06/17 08:12:30;;;;;;;1999.90;999.90;;;18.10;99.90;;;;;;5055239;28;20134;-73
2023/06/17 08:14:55;;;;;;;1999.90;999.90;;;18.10;99.90;;;;;;5057219;28;20048;-73
2023/06/17 08:17:24;;;;;;;1999.90;999.90;;;18.10;99.90;;;;;;5053617;28;20056;-73
2023/06/17 08:19:50;;;;;;;1999.90;999.90;;;18.10;99.90;;;;;;5055555;28;20548;-72
2023/06/17 08:22:16;;;;;;;1999.90;999.90;;;18.10;99.90;;;;;;5055810;28;20480;-72
2023/06/17 08:24:41;;;;;;;1999.90;999.90;;;18.20;99.90;;;;;;5038097;28;20477;-72
2023/06/17 08:27:09;;;;;;;1999.90;999.90;;;18.20;99.90;;;;;;5054143;28;20045;-72
2023/06/17 08:29:35;;;;;;;1999.90;999.90;;;18.30;99.90;;;;;;5021680;28;20053;-72
2023/06/17 08:32:01;;;;;;;1999.90;999.90;;;18.40;99.90;;;;;;5038108;28;20091;-71
2023/06/17 08:34:42;;;;;;;1999.90;999.90;;;18.40;99.90;;;;;;5055184;28;20063;-72
2023/06/17 08:37:11;;;;;;;1999.90;999.90;;;18.40;99.90;;;;;;5053988;28;20068;-72
2023/06/17 08:39:39;;;;;;;1999.90;999.90;;;18.50;99.90;;;;;;5020412;28;20148;-74
2023/06/17 08:42:07;;;;;;;1999.90;999.90;;;18.60;99.90;;;;;;5054485;28;20080;-72
2023/06/17 08:44:33;;;;;;;1999.90;999.90;;;18.80;99.90;;;;;;5055145;28;20048;-72
2023/06/17 08:47:03;;;;;;;1999.90;999.90;;;18.90;99.90;;;;;;5037503;28;20044;-72
2023/06/17 08:49:29;;;;;;;1999.90;999.90;;;19.00;99.90;;;;;;5053446;28;20052;-72
2023/06/17 08:51:59;;;;;;;1999.90;999.90;;;19.10;99.90;;;;;;5056312;28;20045;-74
2023/06/17 08:54:30;;;;;;;1999.90;999.90;;;19.10;99.90;;;;;;5054836;28;20048;-73
2023/06/17 08:57:02;;;;;;;1999.90;999.90;;;19.10;99.90;;;;;;5022743;28;20426;-73
2023/06/17 08:59:27;;;;;;;1999.90;999.90;;;19.20;99.90;;;;;;5020547;28;20136;-75
2023/06/17 09:01:53;;;;;;;1999.90;999.90;;;19.10;99.90;;;;;;5036883;28;20036;-74
2023/06/17 09:04:31;;;;;;;1999.90;999.90;;;19.20;99.90;;;;;;5024125;28;20162;-75
2023/06/17 09:06:57;;;;;;;1999.90;999.90;;;19.20;99.90;;;;;;5053959;28;20143;-74
2023/06/17 09:09:23;;;;;;;1999.90;999.90;;;19.30;99.90;;;;;;5037106;28;20452;-73
2023/06/17 09:11:51;;;;;;;1999.90;999.90;;;19.40;99.90;;;;;;5054531;28;20072;-74
2023/06/17 09:14:18;;;;;;;1999.90;999.90;;;19.50;99.90;;;;;;5020405;28;20048;-74
2023/06/17 09:16:45;;;;;;;1999.90;999.90;;;19.50;99.90;;;;;;5036634;28;20095;-73
2023/06/17 09:19:13;;;;;;;1999.90;999.90;;;19.50;99.90;;;;;;5020508;28;20130;-75
2023/06/17 09:21:39;;;;;;;1999.90;999.90;;;19.60;99.90;;;;;;5052795;28;20052;-74
2023/06/17 09:24:08;;;;;;;1999.90;999.90;;;19.60;99.90;;;;;;5036065;28;20519;-73
2023/06/17 09:26:44;;;;;;;1999.90;999.90;;;19.60;99.90;;;;;;5036041;28;20498;-72
2023/06/17 09:29:14;;;;;;;1999.90;999.90;;;19.70;99.90;;;;;;5053153;28;20076;-73
2023/06/17 09:31:51;;;;;;;1999.90;999.90;;;19.70;99.90;;;;;;5051898;28;20136;-73
2023/06/17 09:34:26;;;;;;;1999.90;999.90;;;19.70;99.90;;;;;;5052737;28;20052;-72
2023/06/17 09:37:00;;;;;;;1999.90;999.90;;;19.70;99.90;;;;;;5035689;28;20550;-73
2023/06/17 09:39:32;;;;;;;1999.90;999.90;;;19.80;99.90;;;;;;5037443;28;20178;-73
2023/06/17 09:42:12;;;;;;;1999.90;999.90;;;19.90;99.90;;;;;;5035901;28;20045;-73
2023/06/17 09:44:39;;;;;;;1999.90;999.90;;;19.90;99.90;;;;;;5037114;28;20053;-72
2023/06/17 09:47:15;;;;;;;1999.90;999.90;;;20.00;99.90;;;;;;5052416;28;20056;-73
2023/06/17 09:49:52;;;;;;;1999.90;999.90;;;20.10;99.90;;;;;;5051799;28;20049;-73
2023/06/17 09:52:20;;;;;;;1999.90;999.90;;;20.10;99.90;;;;;;5052163;28;20053;-73
2023/06/17 09:54:46;;;;;;;1999.90;999.90;;;20.10;99.90;;;;;;5037250;28;20087;-73
2023/06/17 09:57:17;;;;;;;1999.90;999.90;;;20.20;99.90;;;;;;5053776;28;20072;-72
2023/06/17 09:59:45;;;;;;;1999.90;999.90;;;20.20;99.90;;;;;;5036236;28;20507;-73
2023/06/17 10:02:10;;;;;;;1999.90;999.90;;;20.30;99.90;;;;;;5019307;28;20052;-73
2023/06/17 10:04:38;;;;;;;1999.90;999.90;;;20.30;99.90;;;;;;5052193;28;20053;-72
2023/06/17 10:07:06;;;;;;;1999.90;999.90;;;20.30;99.90;;;;;;5037106;28;20150;-75
2023/06/17 10:09:33;;;;;;;1999.90;999.90;;;20.40;99.90;;;;;;5050343;28;20053;-74
2023/06/17 10:12:04;;;;;;;1999.90;999.90;;;20.50;99.90;;;;;;5019210;28;20071;-74
2023/06/17 10:14:36;;;;;;;1999.90;999.90;;;20.50;99.90;;;;;;5052437;28;20079;-74
2023/06/17 10:17:09;;;;;;;1999.90;999.90;;;20.60;99.90;;;;;;5036713;28;20052;-74
2023/06/17 10:19:46;;;;;;;1999.90;999.90;;;20.70;99.90;;;;;;5035768;28;20041;-75
2023/06/17 10:22:15;;;;;;;1999.90;999.90;;;20.90;99.90;;;;;;5052193;28;20041;-74
2023/06/17 10:24:41;;;;;;;1999.90;999.90;;;20.90;99.90;;;;;;5035720;28;20049;-74
2023/06/17 10:27:08;;;;;;;1999.90;999.90;;;20.90;99.90;;;;;;5053886;28;20056;-74
2023/06/17 10:29:47;;;;;;;1999.90;999.90;;;20.90;99.90;;;;;;5053766;28;20166;-76
2023/06/17 10:32:19;;;;;;;1999.90;999.90;;;21.00;99.90;;;;;;5035732;28;20060;-75
2023/06/17 10:35:06;;;;;;;1999.90;999.90;;;21.00;99.90;;;;;;5035977;28;20041;-73
2023/06/17 10:37:46;;;;;;;1999.90;999.90;;;21.00;99.90;;;;;;5052000;28;20142;-74
2023/06/17 10:40:31;;;;;;;1999.90;999.90;;;21.10;99.90;;;;;;5035737;28;20170;-74
2023/06/17 10:43:03;;;;;;;1999.90;999.90;;;21.20;99.90;;;;;;5035632;28;20044;-74
2023/06/17 10:45:49;;;;;;;1999.90;999.90;;;21.20;99.90;;;;;;5052030;28;20132;-74
2023/06/17 10:48:36;;;;;;;1999.90;999.90;;;21.30;99.90;;;;;;5052817;28;20053;-74
2023/06/17 10:51:07;;;;;;;1999.90;999.90;;;21.40;99.90;;;;;;5052084;28;20401;-74
2023/06/17 10:53:40;;;;;;;1999.90;999.90;;;21.40;99.90;;;;;;5036548;28;20052;-73
2023/06/17 10:56:09;;;;;;;1999.90;999.90;;;21.50;99.90;;;;;;5052227;28;20056;-73
2023/06/17 10:58:46;;;;;;;1999.90;999.90;;;21.60;99.90;;;;;;5053371;28;20451;-74
2023/06/17 11:01:12;;;;;;;1999.90;999.90;;;21.60;99.90;;;;;;5056634;28;20049;-75
2023/06/17 11:03:38;;;;;;;1999.90;999.90;;;21.50;99.90;;;;;;5056026;28;20091;-76
2023/06/17 11:06:09;;;;;;;1999.90;999.90;;;21.70;99.90;;;;;;5055754;28;20052;-74
2023/06/17 11:08:38;;;;;;;1999.90;999.90;;;21.70;99.90;;;;;;5039530;28;20128;-76
2023/06/17 11:11:23;;;;;;;1999.90;999.90;;;21.80;99.90;;;;;;5039239;28;20041;-76
2023/06/17 11:14:17;;;;;;;1999.90;999.90;;;21.80;99.90;;;;;;5055640;28;20049;-76
2023/06/17 11:17:07;;;;;;;1999.90;999.90;;;21.90;99.90;;;;;;5051598;28;20052;-72
2023/06/17 11:19:33;;;;;;;1999.90;999.90;;;21.90;99.90;;;;;;5023360;28;20041;-75
2023/06/17 11:22:03;;;;;;;1999.90;999.90;;;22.00;99.90;;;;;;5057189;28;20041;-78
2023/06/17 11:24:38;;;;;;;1999.90;999.90;;;22.00;99.90;;;;;;5039718;28;20052;-73
2023/06/17 11:27:08;;;;;;;1999.90;999.90;;;22.10;99.90;;;;;;5055224;28;20045;-70
2023/06/17 11:29:34;;;;;;;1999.90;999.90;;;22.20;99.90;;;;;;5055479;28;20071;-75
2023/06/17 11:32:01;;;;;;;1999.90;999.90;;;22.20;99.90;;;;;;5056425;28;20045;-75
2023/06/17 11:34:31;;;;;;;1999.90;999.90;;;22.30;99.90;;;;;;5056652;28;20045;-76
2023/06/17 11:37:00;;;;;;;1999.90;999.90;;;22.40;99.90;;;;;;5055104;28;20045;-74
2023/06/17 11:39:28;;;;;;;1999.90;999.90;;;22.40;99.90;;;;;;5056792;28;20379;-74
2023/06/17 11:42:01;;;;;;;1999.90;999.90;;;22.50;99.90;;;;;;5057047;28;20098;-73
2023/06/17 11:44:30;;;;;;;1999.90;999.90;;;22.60;99.90;;;;;;5056813;28;20088;-74
2023/06/17 11:46:58;;;;;;;1999.90;999.90;;;22.60;99.90;;;;;;5055523;28;20377;-74
2023/06/17 11:49:26;;;;;;;1999.90;999.90;;;22.70;99.90;;;;;;5054764;28;20049;-74
2023/06/17 11:51:52;;;;;;;1999.90;999.90;;;22.70;99.90;;;;;;5056067;28;20053;-74
2023/06/17 11:54:19;;;;;;;1999.90;999.90;;;22.80;99.90;;;;;;5056052;28;20055;-74
2023/06/17 11:56:47;;;;;;;1999.90;999.90;;;22.80;99.90;;;;;;5055084;28;20088;-74
2023/06/17 11:59:13;;;;;;;1999.90;999.90;;;22.90;99.90;;;;;;5056213;28;20048;-75
2023/06/17 12:01:39;;;;;;;1999.90;999.90;;;23.00;99.90;;;;;;5055798;28;20053;-73
2023/06/17 12:04:05;;;;;;;1999.90;999.90;;;23.00;99.90;;;;;;5054519;28;20111;-74